Informes METAR

 

LEZL - Sevilla, Spain
Distancia de la estación: ENE 8km
Actualización: 31/07/2014 23:30
Despejado
Despejado
 Viento de SO
Viento: SO 17 km/h
Temperatura: 21°C
Rocío: 15°C
Humedad: 69%
Barómetro: 1016 hPa
Resumen: Despejado
Visibilidad: mayor de 10 km
2014/07/31 21:30 LEZL 312130Z 23009KT 200V260 CAVOK 21/15 Q1016 NOSIG
LEMO - Morón, Spain
Distancia de la estación: SE 43km
Actualización: 31/07/2014 23:00
Despejado
Despejado
 Viento de O
Viento: O 11 km/h
Temperatura: 20°C
Rocío: 16°C
Humedad: 78%
Barómetro: 1016 hPa
Resumen: Despejado
Visibilidad: mayor de 10 km
2014/07/31 21:00 LEMO 312100Z 27006KT 230V290 CAVOK 20/16 Q1016 NOSIG
LEJR - Jeréz, Spain
Distancia de la estación: S 71km
Actualización: 31/07/2014 23:00
Poco nuboso
Poco nuboso
 Viento de OSO
Viento: OSO 7 km/h
Temperatura: 21°C
Rocío: 16°C
Humedad: 73%
Barómetro: 1016 hPa
Nubes: Poco nuboso
Visibilidad: 10 km
Detalles de las nubes: Poco nuboso 610 m
2014/07/31 21:00 LEJR 312100Z 24004KT 9999 FEW020 21/16 Q1016
 
LERT - Rota, Spain
Distancia de la estación: SSO 89km
Actualización: 31/07/2014 23:00
Parcialmente nuboso
Parcialmente nuboso
 Viento de OSO
Viento: OSO 17 km/h
Temperatura: 22°C
Rocío: 16°C
Humedad: 69%
Barómetro: 1016 hPa
Nubes: Parcialmente nuboso
Visibilidad: 10 km
Detalles de las nubes: Parcialmente nuboso 610 m
2014/07/31 21:00 LERT 312100Z 25009KT 9999 SCT020 22/16 Q1016 NOSIG
LEMG - Málaga, Spain
Distancia de la estación: ESE 157km
Actualización: 31/07/2014 23:30
Despejado
Despejado
 Viento de calm
Viento: Calma
Temperatura: 24°C
Rocío: 15°C
Humedad: 57%
Barómetro: 1013 hPa
Resumen: Despejado
Visibilidad: mayor de 10 km
2014/07/31 21:30 LEMG 312130Z 00000KT CAVOK 24/15 Q1013 NOSIG
LEBA - Córdoba, Spain
Distancia de la estación: ENE 115km
Actualización: 31/07/2014 21:00
NOT Current
Despejado
Despejado
 Viento de OSO
Viento: OSO 19 km/h
Temperatura: 27°C
Índice de calor: 27°C
Rocío: 13°C
Humedad: 42%
Barómetro: 1013 hPa
Resumen: Despejado
Visibilidad: mayor de 10 km
2014/07/31 19:00 LEBA 311900Z 25010KT 230V290 CAVOK 27/13 Q1013
 
LEGR - Granada, Spain
Distancia de la estación: E 198km
Actualización: 31/07/2014 23:00
Despejado
Despejado
 Viento de OSO
Viento: OSO 11 km/h
Temperatura: 25°C
Rocío: 16°C
Humedad: 57%
Barómetro: 1017 hPa
Resumen: Despejado
Visibilidad: mayor de 10 km
2014/07/31 21:00 LEGR 312100Z 25006KT CAVOK 25/16 Q1017
LEAM - Almería, Spain
Distancia de la estación: E 326km
Actualización: 31/07/2014 22:30
Poco nuboso
Poco nuboso
 Viento de SO
Viento: SO 22 km/h
Temperatura: 25°C
Rocío: 21°C
Humedad: 79%
Barómetro: 1012 hPa
Nubes: Poco nuboso
Visibilidad: 10 km
Detalles de las nubes: Poco nuboso 610 m
2014/07/31 20:30 LEAM 312030Z 22012KT 9999 FEW020 25/21 Q1012
LEMD - Madrid/Barajas, Spain
Distancia de la estación: NNE 402km
Actualización: 31/07/2014 23:30
Despejado
Despejado
 Viento de OSO
Viento: OSO 17 km/h
Temperatura: 31°C
Rocío: 9°C
Humedad: 25%
Barómetro: 1013 hPa
Resumen: Despejado
Visibilidad: mayor de 10 km
2014/07/31 21:30 LEMD 312130Z 25009KT 220V280 CAVOK 31/09 Q1013 NOSIG
 
LEVD - Valladolid, Spain
Distancia de la estación: N 492km
Actualización: 31/07/2014 21:30
NOT Current
Parcialmente nuboso
Parcialmente nuboso
 Viento de OSO
Viento: OSO 11 km/h
Temperatura: 26°C
Rocío: 5°C
Humedad: 26%
Barómetro: 1013 hPa
Nubes: Parcialmente nuboso
Visibilidad: 10 km
Detalles de las nubes: Parcialmente nuboso 1158 m
2014/07/31 19:30 LEVD 311930Z 24006KT 9999 SCT038 26/05 Q1013
LEBL - Barcelona, Spain
Distancia de la estación: NE 816km
Actualización: 31/07/2014 23:30
Poco nuboso
Poco nuboso
 Viento de SO
Viento: SO 15 km/h
Temperatura: 24°C
Rocío: 19°C
Humedad: 74%
Barómetro: 1012 hPa
Nubes: Poco nuboso
Visibilidad: 10 km
Detalles de las nubes: Poco nuboso 853 m
2014/07/31 21:30 LEBL 312130Z 22008KT 9999 FEW028 24/19 Q1012 NOSIG
LEVC - Valencia, Spain
Distancia de la estación: ENE 535km
Actualización: 31/07/2014 23:30
Despejado
Despejado
 Viento de ENE
Viento: ENE 13 km/h
Temperatura: 26°C
Rocío: 21°C
Humedad: 74%
Barómetro: 1012 hPa
Resumen: Despejado
Visibilidad: mayor de 10 km
2014/07/31 21:30 LEVC 312130Z 07007KT 030V110 CAVOK 26/21 Q1012 NOSIG